createdAt,value
2019-04-07T00:01:51.469Z,96.80
2019-04-07T00:04:17.681Z,97.00
2019-04-07T00:06:43.987Z,97.50
2019-04-07T00:09:10.820Z,97.50
2019-04-07T00:11:37.210Z,97.40
2019-04-07T00:14:04.049Z,97.40
2019-04-07T00:16:30.914Z,97.20
2019-04-07T00:18:57.130Z,97.50
2019-04-07T00:21:24.043Z,97.10
2019-04-07T00:23:50.748Z,97.20
2019-04-07T00:26:17.106Z,97.10
2019-04-07T00:28:43.731Z,97.10
2019-04-07T00:31:10.046Z,97.20
2019-04-07T00:33:36.300Z,97.20
2019-04-07T00:36:02.788Z,97.30
2019-04-07T00:38:29.342Z,97.20
2019-04-07T00:40:55.798Z,97.10
2019-04-07T00:43:22.249Z,97.10
2019-04-07T00:45:49.194Z,97.10
2019-04-07T00:48:15.694Z,97.00
2019-04-07T00:50:41.973Z,97.10
2019-04-07T00:53:08.854Z,97.20
2019-04-07T00:55:35.356Z,97.10
2019-04-07T00:58:01.694Z,97.20
2019-04-07T01:00:30.123Z,97.10
2019-04-07T01:02:56.805Z,97.30
2019-04-07T01:05:34.243Z,97.40
2019-04-07T01:07:51.226Z,97.60
2019-04-07T01:10:17.582Z,97.60
2019-04-07T01:12:44.468Z,97.40
2019-04-07T01:15:11.823Z,97.50
2019-04-07T01:17:39.210Z,97.50
2019-04-07T01:20:06.417Z,97.50
2019-04-07T01:22:33.061Z,97.50
2019-04-07T01:24:59.544Z,97.60
2019-04-07T01:27:25.970Z,97.80
2019-04-07T01:29:52.262Z,97.80
2019-04-07T01:32:19.192Z,98.20
2019-04-07T01:34:45.778Z,97.80
2019-04-07T01:37:12.188Z,97.80
2019-04-07T01:39:38.556Z,98.00
2019-04-07T01:42:15.869Z,98.00
2019-04-07T01:45:00.481Z,98.00
2019-04-07T01:47:28.928Z,97.90
2019-04-07T01:50:00.502Z,97.90
2019-04-07T01:52:28.666Z,97.90
2019-04-07T01:55:13.574Z,98.00
2019-04-07T01:57:44.441Z,98.20
2019-04-07T02:00:18.866Z,98.20
2019-04-07T02:02:53.027Z,98.20
2019-04-07T02:05:37.604Z,98.20
2019-04-07T02:08:22.131Z,98.20
2019-04-07T02:10:53.205Z,98.10
2019-04-07T02:13:24.465Z,98.30
2019-04-07T02:16:01.807Z,98.30
2019-04-07T02:18:30.098Z,98.80
2019-04-07T02:20:58.955Z,98.60
2019-04-07T02:23:30.205Z,98.60
2019-04-07T02:26:13.632Z,98.70
2019-04-07T02:28:44.655Z,98.80
2019-04-07T02:31:15.390Z,98.70
2019-04-07T02:33:52.506Z,98.70
2019-04-07T02:36:31.345Z,98.70
2019-04-07T02:39:02.769Z,98.60
2019-04-07T02:41:47.307Z,98.50
2019-04-07T02:44:31.501Z,98.50
2019-04-07T02:47:06.398Z,98.70
2019-04-07T02:49:35.517Z,98.80
2019-04-07T02:52:04.057Z,98.70
2019-04-07T02:54:42.099Z,98.80
2019-04-07T02:57:11.314Z,98.80
2019-04-07T02:59:48.672Z,98.80
2019-04-07T03:02:35.004Z,98.80
2019-04-07T03:05:04.150Z,98.70
2019-04-07T03:07:39.153Z,98.70
2019-04-07T03:10:08.924Z,98.70
2019-04-07T03:12:55.385Z,98.80
2019-04-07T03:15:40.845Z,98.90
2019-04-07T03:18:10.192Z,99.10
2019-04-07T03:20:51.362Z,99.10
2019-04-07T03:23:31.751Z,99.10
2019-04-07T03:26:00.862Z,99.20
2019-04-07T03:28:33.036Z,99.10
2019-04-07T03:31:02.206Z,99.10
2019-04-07T03:33:40.750Z,99.40
2019-04-07T03:36:10.855Z,99.10
2019-04-07T03:38:41.153Z,99.10
2019-04-07T03:41:27.807Z,99.10
2019-04-07T03:44:09.363Z,99.00
2019-04-07T03:46:49.515Z,99.20
2019-04-07T03:49:18.753Z,99.20
2019-04-07T03:51:56.299Z,99.30
2019-04-07T03:54:24.660Z,99.30
2019-04-07T03:56:53.014Z,99.50
2019-04-07T03:59:33.366Z,99.60
2019-04-07T04:02:19.662Z,99.60
2019-04-07T04:04:47.837Z,99.50
2019-04-07T04:07:28.352Z,99.40
2019-04-07T04:09:52.016Z,99.30
2019-04-07T04:12:21.230Z,99.20
2019-04-07T04:14:55.310Z,99.20
2019-04-07T04:17:21.623Z,99.30
2019-04-07T04:19:48.172Z,99.30
2019-04-07T04:22:14.612Z,99.30
2019-04-07T04:24:41.013Z,99.30
2019-04-07T04:27:07.348Z,99.30
2019-04-07T04:29:33.616Z,99.30
2019-04-07T04:31:59.910Z,99.40
2019-04-07T04:34:27.081Z,99.30
2019-04-07T04:36:54.339Z,99.40
2019-04-07T04:39:21.197Z,99.60
2019-04-07T04:41:47.403Z,99.50
2019-04-07T04:44:14.304Z,99.60
2019-04-07T04:46:41.115Z,99.80
2019-04-07T04:49:07.797Z,99.80
2019-04-07T04:51:36.974Z,99.90
2019-04-07T04:54:02.291Z,99.80
2019-04-07T04:56:28.847Z,99.70
2019-04-07T04:58:55.161Z,99.70
2019-04-07T05:01:21.927Z,99.80
2019-04-07T05:03:48.262Z,99.70
2019-04-07T05:06:14.577Z,99.70
2019-04-07T05:08:40.940Z,99.80
2019-04-07T05:11:07.846Z,99.80
2019-04-07T05:13:35.029Z,99.70
2019-04-07T05:16:02.644Z,99.80
2019-04-07T05:18:29.023Z,99.80
2019-04-07T05:20:55.397Z,99.70
2019-04-07T05:23:21.791Z,99.80
2019-04-07T05:25:48.185Z,99.80
2019-04-07T05:28:14.548Z,99.80
2019-04-07T05:30:41.447Z,99.80
2019-04-07T05:33:07.944Z,99.80
2019-04-07T05:35:35.068Z,99.80
2019-04-07T05:38:04.025Z,99.80
2019-04-07T05:40:29.528Z,99.90
2019-04-07T05:42:55.913Z,99.80
2019-04-07T05:45:22.683Z,99.90
2019-04-07T05:47:50.784Z,99.90
2019-04-07T05:50:17.228Z,99.90
2019-04-07T05:52:43.499Z,99.90
2019-04-07T05:55:10.846Z,99.90
2019-04-07T05:57:37.802Z,99.90
2019-04-07T06:00:08.056Z,99.80
2019-04-07T06:02:34.344Z,99.90
2019-04-07T06:05:01.243Z,99.90
2019-04-07T06:07:31.261Z,99.90
2019-04-07T06:09:55.756Z,99.90
2019-04-07T06:12:22.663Z,99.90
2019-04-07T06:14:49.748Z,99.90
2019-04-07T06:17:16.279Z,99.90
2019-04-07T06:19:42.484Z,99.90
2019-04-07T06:22:10.076Z,99.90
2019-04-07T06:24:36.517Z,99.90
2019-04-07T06:27:03.336Z,99.80
2019-04-07T06:29:30.131Z,99.60
2019-04-07T06:31:57.743Z,99.60
2019-04-07T06:34:24.948Z,99.60
2019-04-07T06:36:53.655Z,99.60
2019-04-07T06:39:20.083Z,99.60
2019-04-07T06:41:46.575Z,99.60
2019-04-07T06:44:15.846Z,99.60
2019-04-07T06:46:52.476Z,99.50
2019-04-07T06:49:20.803Z,99.40
2019-04-07T06:51:49.048Z,99.40
2019-04-07T06:54:26.568Z,99.20
2019-04-07T06:57:04.338Z,99.00
2019-04-07T06:59:30.573Z,98.80
2019-04-07T07:02:15.385Z,98.70
2019-04-07T07:04:49.748Z,98.60
2019-04-07T07:07:27.105Z,98.50
2019-04-07T07:09:59.753Z,98.40
2019-04-07T07:12:32.291Z,98.40
2019-04-07T07:14:56.119Z,98.40
2019-04-07T07:17:35.553Z,98.10
2019-04-07T07:20:12.930Z,97.90
2019-04-07T07:22:50.770Z,97.90
2019-04-07T07:25:18.064Z,97.80
2019-04-07T07:27:44.538Z,97.80
2019-04-07T07:30:10.967Z,97.80
2019-04-07T07:32:38.925Z,97.60
2019-04-07T07:35:06.257Z,99.50
2019-04-07T07:37:33.858Z,97.80
2019-04-07T07:40:00.973Z,97.80
2019-04-07T07:42:27.769Z,97.50
2019-04-07T07:44:54.309Z,97.10
2019-04-07T07:47:22.533Z,96.90
2019-04-07T07:49:48.801Z,96.60
2019-04-07T07:52:18.709Z,96.30
2019-04-07T07:54:45.852Z,96.20
2019-04-07T07:57:12.285Z,96.10
2019-04-07T07:59:39.625Z,95.90
2019-04-07T08:02:06.711Z,95.90
2019-04-07T08:04:33.486Z,95.70
2019-04-07T08:07:02.239Z,95.40
2019-04-07T08:09:28.311Z,95.10
2019-04-07T08:11:55.295Z,94.20
2019-04-07T08:14:21.736Z,94.20
2019-04-07T08:16:48.969Z,93.60
2019-04-07T08:19:15.586Z,93.90
2019-04-07T08:21:43.595Z,93.20
2019-04-07T08:24:10.247Z,93.00
2019-04-07T08:26:36.800Z,92.50
2019-04-07T08:29:05.996Z,92.70
2019-04-07T08:31:32.618Z,92.30
2019-04-07T08:34:00.022Z,92.30
2019-04-07T08:36:27.672Z,92.10
2019-04-07T08:38:56.099Z,92.10
2019-04-07T08:41:23.413Z,92.00
2019-04-07T08:43:53.268Z,91.50
2019-04-07T08:46:18.873Z,91.90
2019-04-07T08:48:45.428Z,91.70
2019-04-07T08:51:12.063Z,92.10
2019-04-07T08:53:38.900Z,92.00
2019-04-07T08:56:06.789Z,90.70
2019-04-07T08:58:37.929Z,89.10
2019-04-07T09:01:02.167Z,89.00
2019-04-07T09:03:29.205Z,89.20
2019-04-07T09:05:57.413Z,90.00
2019-04-07T09:08:24.086Z,88.10
2019-04-07T09:11:07.864Z,88.20
2019-04-07T09:13:34.269Z,87.30
2019-04-07T09:16:02.662Z,87.30
2019-04-07T09:18:37.378Z,87.80
2019-04-07T09:21:15.623Z,87.00
2019-04-07T09:23:50.740Z,87.90
2019-04-07T09:26:22.911Z,87.20
2019-04-07T09:28:55.803Z,86.80
2019-04-07T09:31:30.396Z,87.30
2019-04-07T09:33:58.648Z,85.00
2019-04-07T09:36:36.370Z,83.60
2019-04-07T09:39:06.836Z,82.30
2019-04-07T09:41:35.259Z,82.50
2019-04-07T09:44:13.592Z,83.10
2019-04-07T09:46:59.602Z,80.00
2019-04-07T09:49:56.309Z,77.40
2019-04-07T09:52:25.422Z,75.90
2019-04-07T09:55:10.476Z,77.40
2019-04-07T09:57:42.053Z,76.30
2019-04-07T10:00:28.856Z,70.90
2019-04-07T10:03:09.799Z,71.20
2019-04-07T10:05:42.767Z,69.80
2019-04-07T10:08:26.429Z,68.60
2019-04-07T10:11:04.206Z,68.60
2019-04-07T10:13:45.248Z,68.00
2019-04-07T10:16:25.821Z,65.50
2019-04-07T10:19:10.964Z,63.40
2019-04-07T10:21:56.106Z,60.70
2019-04-07T10:24:39.397Z,59.30
2019-04-07T10:27:10.876Z,60.50
2019-04-07T10:29:45.023Z,59.90
2019-04-07T10:32:26.750Z,56.30
2019-04-07T10:35:12.494Z,55.80
2019-04-07T10:37:59.042Z,55.60
2019-04-07T10:40:31.124Z,54.00
2019-04-07T10:42:59.779Z,53.40
2019-04-07T10:45:34.061Z,52.70
2019-04-07T10:48:09.160Z,52.30
2019-04-07T10:50:52.144Z,52.10
2019-04-07T10:53:20.653Z,53.80
2019-04-07T10:55:49.504Z,50.90
2019-04-07T10:58:20.858Z,50.80
2019-04-07T11:01:00.983Z,50.90
2019-04-07T11:03:45.836Z,50.20
2019-04-07T11:06:22.802Z,50.90
2019-04-07T11:08:51.796Z,49.20
2019-04-07T11:11:23.155Z,49.10
2019-04-07T11:14:06.892Z,49.20
2019-04-07T11:16:35.189Z,50.20
2019-04-07T11:19:09.785Z,50.20
2019-04-07T11:21:55.591Z,51.00
2019-04-07T11:24:23.987Z,52.30
2019-04-07T11:26:58.146Z,47.20
2019-04-07T11:29:28.310Z,46.30
2019-04-07T11:32:13.908Z,45.90
2019-04-07T11:34:45.488Z,45.90
2019-04-07T11:37:16.733Z,46.50
2019-04-07T11:39:54.373Z,45.30
2019-04-07T11:42:23.017Z,46.10
2019-04-07T11:44:57.521Z,46.10
2019-04-07T11:47:28.739Z,46.50
2019-04-07T11:50:13.522Z,47.20
2019-04-07T11:52:44.622Z,45.90
2019-04-07T11:55:19.040Z,45.90
2019-04-07T11:58:10.738Z,45.10
2019-04-07T12:00:45.178Z,45.30
2019-04-07T12:03:19.210Z,45.00
2019-04-07T12:05:48.429Z,45.70
2019-04-07T12:08:35.872Z,45.50
2019-04-07T12:11:04.906Z,45.60
2019-04-07T12:13:34.893Z,46.10
2019-04-07T12:16:15.669Z,44.80
2019-04-07T12:19:00.225Z,44.80
2019-04-07T12:21:43.842Z,42.90
2019-04-07T12:24:12.385Z,42.50
2019-04-07T12:27:01.070Z,43.40
2019-04-07T12:29:29.072Z,43.00
2019-04-07T12:32:06.167Z,42.10
2019-04-07T12:34:37.341Z,42.40
2019-04-07T12:37:23.826Z,41.90
2019-04-07T12:39:57.906Z,42.30
2019-04-07T12:42:31.911Z,43.00
2019-04-07T12:45:06.086Z,42.60
2019-04-07T12:47:49.324Z,41.60
2019-04-07T12:50:19.741Z,42.10
2019-04-07T12:53:06.000Z,43.00
2019-04-07T12:55:37.295Z,42.40
2019-04-07T12:58:17.609Z,42.10
2019-04-07T13:00:57.815Z,41.30
2019-04-07T13:03:18.472Z,39.20
2019-04-07T13:05:46.848Z,38.90
2019-04-07T13:08:24.134Z,37.80
2019-04-07T13:10:56.993Z,39.20
2019-04-07T13:13:31.316Z,41.80
2019-04-07T13:16:10.161Z,42.70
2019-04-07T13:18:54.298Z,43.00
2019-04-07T13:21:24.821Z,42.70
2019-04-07T13:24:12.698Z,42.20
2019-04-07T13:26:56.194Z,42.70
2019-04-07T13:29:27.962Z,42.80
2019-04-07T13:31:58.046Z,41.70
2019-04-07T13:34:35.134Z,41.60
2019-04-07T13:37:15.644Z,40.20
2019-04-07T13:40:01.214Z,40.90
2019-04-07T13:42:44.541Z,41.60
2019-04-07T13:45:14.241Z,42.60
2019-04-07T13:47:48.749Z,42.00
2019-04-07T13:50:23.333Z,41.70
2019-04-07T13:53:08.879Z,41.10
2019-04-07T13:55:41.111Z,41.00
2019-04-07T13:58:23.526Z,41.10
2019-04-07T14:00:52.057Z,41.40
2019-04-07T14:03:24.453Z,39.70
2019-04-07T14:06:14.491Z,39.60
2019-04-07T14:08:51.713Z,40.40
2019-04-07T14:11:32.768Z,39.70
2019-04-07T14:14:11.129Z,39.30
2019-04-07T14:16:57.424Z,39.20
2019-04-07T14:19:41.061Z,38.40
2019-04-07T14:22:12.084Z,38.40
2019-04-07T14:24:43.653Z,39.10
2019-04-07T14:27:12.226Z,39.00
2019-04-07T14:29:40.645Z,40.70
2019-04-07T14:32:09.912Z,39.70
2019-04-07T14:34:50.246Z,40.60
2019-04-07T14:37:20.265Z,40.40
2019-04-07T14:39:52.189Z,41.00
2019-04-07T14:42:29.453Z,41.20
2019-04-07T14:44:57.603Z,41.90
2019-04-07T14:47:42.500Z,41.30
2019-04-07T14:50:20.041Z,41.60
2019-04-07T14:52:48.330Z,41.60
2019-04-07T14:55:19.579Z,41.50
2019-04-07T14:58:06.677Z,42.10
2019-04-07T15:00:51.292Z,42.30
2019-04-07T15:03:17.712Z,42.40
2019-04-07T15:05:49.425Z,42.20
2019-04-07T15:08:18.097Z,42.70
2019-04-07T15:10:47.344Z,42.10
2019-04-07T15:13:21.307Z,42.10
2019-04-07T15:15:49.939Z,42.60
2019-04-07T15:18:16.496Z,42.50
2019-04-07T15:20:43.412Z,42.40
2019-04-07T15:23:10.088Z,42.50
2019-04-07T15:25:40.317Z,42.60
2019-04-07T15:28:04.667Z,43.30
2019-04-07T15:30:31.105Z,43.00
2019-04-07T15:32:59.458Z,42.50
2019-04-07T15:35:26.423Z,42.00
2019-04-07T15:37:53.739Z,42.50
2019-04-07T15:40:20.370Z,43.20
2019-04-07T15:42:50.568Z,43.10
2019-04-07T15:45:15.132Z,42.40
2019-04-07T15:47:42.277Z,42.60
2019-04-07T15:50:09.631Z,42.10
2019-04-07T15:52:36.918Z,42.30
2019-04-07T15:55:06.306Z,42.10
2019-04-07T15:57:32.742Z,42.20
2019-04-07T16:00:01.676Z,42.40
2019-04-07T16:02:27.567Z,45.80
2019-04-07T16:04:57.780Z,42.50
2019-04-07T16:07:22.821Z,41.60
2019-04-07T16:09:54.683Z,42.20
2019-04-07T16:12:17.280Z,42.80
2019-04-07T16:14:45.900Z,44.60
2019-04-07T16:17:12.161Z,42.50
2019-04-07T16:19:44.394Z,43.50
2019-04-07T16:22:12.594Z,44.90
2019-04-07T16:24:37.972Z,44.10
2019-04-07T16:27:06.726Z,43.80
2019-04-07T16:29:33.012Z,43.60
2019-04-07T16:32:00.033Z,42.80
2019-04-07T16:34:26.427Z,43.60
2019-04-07T16:36:55.485Z,43.00
2019-04-07T16:39:21.080Z,43.50
2019-04-07T16:41:48.881Z,43.50
2019-04-07T16:44:15.900Z,45.30
2019-04-07T16:46:42.677Z,48.10
2019-04-07T16:49:11.382Z,48.80
2019-04-07T16:51:38.326Z,49.70
2019-04-07T16:54:08.057Z,50.40
2019-04-07T16:56:32.969Z,50.50
2019-04-07T16:59:01.282Z,51.20
2019-04-07T17:01:28.476Z,50.90
2019-04-07T17:03:55.362Z,50.50
2019-04-07T17:06:21.941Z,50.30
2019-04-07T17:08:51.166Z,50.30
2019-04-07T17:11:18.065Z,50.60
2019-04-07T17:13:44.504Z,50.70
2019-04-07T17:16:12.206Z,50.70
2019-04-07T17:18:41.243Z,50.90
2019-04-07T17:21:15.112Z,51.20
2019-04-07T17:23:42.640Z,51.10
2019-04-07T17:26:09.499Z,51.10
2019-04-07T17:28:36.541Z,51.00
2019-04-07T17:31:04.609Z,51.20
2019-04-07T17:33:35.146Z,51.40
2019-04-07T17:35:59.313Z,51.30
2019-04-07T17:38:28.023Z,51.10
2019-04-07T17:40:54.500Z,51.30
2019-04-07T17:43:31.169Z,51.70
2019-04-07T17:46:05.096Z,51.40
2019-04-07T17:48:44.029Z,51.10
2019-04-07T17:51:10.137Z,51.10
2019-04-07T17:53:55.209Z,52.10
2019-04-07T17:56:29.812Z,51.30
2019-04-07T17:59:08.752Z,51.60
2019-04-07T18:01:35.750Z,51.30
2019-04-07T18:04:04.054Z,51.10
2019-04-07T18:06:33.363Z,51.40
2019-04-07T18:09:20.910Z,51.80
2019-04-07T18:11:48.020Z,52.00
2019-04-07T18:14:22.407Z,52.70
2019-04-07T18:16:51.626Z,52.70
2019-04-07T18:19:37.590Z,53.00
2019-04-07T18:22:12.542Z,52.90
2019-04-07T18:24:49.424Z,53.50
2019-04-07T18:27:30.677Z,52.80
2019-04-07T18:30:00.744Z,52.70
2019-04-07T18:32:32.932Z,52.70
2019-04-07T18:35:17.572Z,53.00
2019-04-07T18:37:46.314Z,53.10
2019-04-07T18:40:14.918Z,53.60
2019-04-07T18:42:57.992Z,53.60
2019-04-07T18:45:30.756Z,53.70
2019-04-07T18:47:59.364Z,54.10
2019-04-07T18:50:28.629Z,54.40
2019-04-07T18:52:57.507Z,54.80
2019-04-07T18:55:30.055Z,54.90
2019-04-07T18:57:58.514Z,55.10
2019-04-07T19:00:43.436Z,55.30
2019-04-07T19:03:11.953Z,55.80
2019-04-07T19:05:54.145Z,55.90
2019-04-07T19:08:21.888Z,56.10
2019-04-07T19:11:12.358Z,56.70
2019-04-07T19:14:07.340Z,56.60
2019-04-07T19:16:23.220Z,56.40
2019-04-07T19:18:54.655Z,56.10
2019-04-07T19:21:28.667Z,56.00
2019-04-07T19:24:07.999Z,55.90
2019-04-07T19:26:42.190Z,56.00
2019-04-07T19:29:10.469Z,56.20
2019-04-07T19:31:48.067Z,55.90
2019-04-07T19:34:31.792Z,55.20
2019-04-07T19:37:19.314Z,55.00
2019-04-07T19:39:56.450Z,54.90
2019-04-07T19:42:27.368Z,55.10
2019-04-07T19:44:59.310Z,54.80
2019-04-07T19:47:44.538Z,54.70
2019-04-07T19:50:15.861Z,54.70
2019-04-07T19:52:44.609Z,54.80
2019-04-07T19:55:22.742Z,54.40
2019-04-07T19:57:51.553Z,54.00
2019-04-07T20:00:37.097Z,54.60
2019-04-07T20:03:24.238Z,54.60
2019-04-07T20:05:53.353Z,54.70
2019-04-07T20:08:38.633Z,54.40
2019-04-07T20:11:30.422Z,54.30
2019-04-07T20:13:58.935Z,54.50
2019-04-07T20:16:28.256Z,54.40
2019-04-07T20:19:11.353Z,54.60
2019-04-07T20:21:43.686Z,54.40
2019-04-07T20:24:15.746Z,54.00
2019-04-07T20:26:44.888Z,53.50
2019-04-07T20:29:17.119Z,53.40
2019-04-07T20:31:51.993Z,53.00
2019-04-07T20:34:25.220Z,53.10
2019-04-07T20:36:59.793Z,52.60
2019-04-07T20:39:36.907Z,52.80
2019-04-07T20:42:08.672Z,52.60
2019-04-07T20:44:39.975Z,52.90
2019-04-07T20:47:11.151Z,52.90
2019-04-07T20:49:50.293Z,52.80
2019-04-07T20:52:24.014Z,52.50
2019-04-07T20:54:51.216Z,52.60
2019-04-07T20:57:23.731Z,52.90
2019-04-07T21:00:06.593Z,52.90
2019-04-07T21:02:35.050Z,53.10
2019-04-07T21:05:03.551Z,52.70
2019-04-07T21:07:49.144Z,52.80
2019-04-07T21:10:24.267Z,52.70
2019-04-07T21:12:52.767Z,52.70
2019-04-07T21:15:25.871Z,52.80
2019-04-07T21:17:54.393Z,53.00
2019-04-07T21:20:39.162Z,53.20
2019-04-07T21:23:14.060Z,53.20
2019-04-07T21:25:55.477Z,53.30
2019-04-07T21:28:25.235Z,53.40
2019-04-07T21:31:14.165Z,53.10
2019-04-07T21:33:45.862Z,53.10
2019-04-07T21:36:14.289Z,53.30
2019-04-07T21:38:50.578Z,53.40
2019-04-07T21:41:34.790Z,53.40
2019-04-07T21:44:03.245Z,53.60
2019-04-07T21:46:37.445Z,53.70
2019-04-07T21:49:22.070Z,54.00
2019-04-07T21:51:53.161Z,54.40
2019-04-07T21:54:24.033Z,54.40
2019-04-07T21:56:52.175Z,54.80
2019-04-07T21:59:31.425Z,55.50
2019-04-07T22:02:12.189Z,55.60
2019-04-07T22:04:50.607Z,56.00
2019-04-07T22:07:33.521Z,56.00
2019-04-07T22:10:09.955Z,56.30
2019-04-07T22:12:36.362Z,56.40
2019-04-07T22:15:05.227Z,56.50
2019-04-07T22:17:34.429Z,56.70
2019-04-07T22:20:00.598Z,56.70
2019-04-07T22:22:27.676Z,57.10
2019-04-07T22:24:54.122Z,57.30
2019-04-07T22:27:24.545Z,57.40
2019-04-07T22:29:48.956Z,57.50
2019-04-07T22:32:19.219Z,58.00
2019-04-07T22:34:44.036Z,58.50
2019-04-07T22:37:10.579Z,58.50
2019-04-07T22:39:37.551Z,59.70
2019-04-07T22:42:04.158Z,59.20
2019-04-07T22:44:31.374Z,59.50
2019-04-07T22:46:58.429Z,60.30
2019-04-07T22:49:28.606Z,60.20
2019-04-07T22:51:54.842Z,60.60
2019-04-07T22:54:21.093Z,60.80
2019-04-07T22:56:47.477Z,61.60
2019-04-07T22:59:13.779Z,61.90
2019-04-07T23:01:40.953Z,62.40
2019-04-07T23:04:07.215Z,62.40
2019-04-07T23:06:34.126Z,62.60
2019-04-07T23:09:01.487Z,63.10
2019-04-07T23:11:27.951Z,63.30
2019-04-07T23:13:55.515Z,64.30
2019-04-07T23:16:21.898Z,64.50
2019-04-07T23:18:48.367Z,65.60
2019-04-07T23:21:14.989Z,65.20
2019-04-07T23:23:42.268Z,65.90
2019-04-07T23:26:09.524Z,66.60
2019-04-07T23:28:36.007Z,66.60
2019-04-07T23:31:03.234Z,66.90
2019-04-07T23:33:29.834Z,67.30
2019-04-07T23:35:56.237Z,67.40
2019-04-07T23:38:22.503Z,68.70
2019-04-07T23:40:49.417Z,68.80
2019-04-07T23:43:15.783Z,69.20
2019-04-07T23:45:42.167Z,69.60
2019-04-07T23:48:08.445Z,70.60
2019-04-07T23:50:35.490Z,70.60
2019-04-07T23:53:38.760Z,70.70
2019-04-07T23:56:05.917Z,71.40
2019-04-07T23:58:32.164Z,72.30
